Time;durP1;ratioP1;P1;durP2;ratioP2;P2;SDS_P1;SDS_P2;PMS_P1;PMS_P2;Temp;Humidity;BMP_temperature;BMP_pressure;BME280_temperature;BME280_humidity;BME280_pressure;Samples;Min_cycle;Max_cycle;Signal;HPM_P1;HPM_P2
2023/12/29 00:03:39;;;;;;;4.57;1.97;;;18.70;59.90;;;;;;4967027;28;20790;-81
2023/12/29 00:06:49;;;;;;;5.63;2.10;;;18.70;59.60;;;;;;4966525;28;20461;-76
2023/12/29 00:19:29;;;;;;;4.37;2.40;;;18.70;60.00;;;;;;4975541;28;20460;-79
2023/12/29 00:23:07;;;;;;;7.37;2.80;;;18.70;59.90;;;;;;4967155;28;20458;-79
2023/12/29 00:28:49;;;;;;;6.83;2.13;;;18.70;59.90;;;;;;4981028;28;20450;-77
2023/12/29 00:31:25;;;;;;;6.97;2.23;;;18.70;60.00;;;;;;4976023;28;20454;-84
2023/12/29 00:34:04;;;;;;;5.60;2.27;;;18.70;60.00;;;;;;4967708;28;20520;-78
2023/12/29 00:36:40;;;;;;;8.27;2.53;;;18.70;60.10;;;;;;4967821;28;20477;-78
2023/12/29 00:39:12;;;;;;;6.60;2.40;;;18.70;60.00;;;;;;4967692;28;20523;-79
2023/12/29 00:41:46;;;;;;;5.70;2.47;;;18.70;60.10;;;;;;4973528;28;20449;-78
2023/12/29 00:46:42;;;;;;;4.73;2.17;;;18.70;60.50;;;;;;5019977;28;20558;-78
2023/12/29 00:49:10;;;;;;;4.83;2.10;;;18.70;60.20;;;;;;5018827;28;20471;-77
2023/12/29 00:51:40;;;;;;;4.20;2.40;;;18.70;60.20;;;;;;5028476;28;20436;-77
2023/12/29 00:54:10;;;;;;;4.50;2.03;;;18.70;60.30;;;;;;5029376;28;20414;-76
2023/12/29 00:56:37;;;;;;;3.77;2.17;;;18.70;60.50;;;;;;5004416;28;20499;-76
2023/12/29 00:59:05;;;;;;;7.10;2.40;;;18.70;60.30;;;;;;5009595;28;20864;-76
2023/12/29 01:01:34;;;;;;;4.83;2.20;;;18.60;60.70;;;;;;4997804;28;20472;-76
2023/12/29 01:04:02;;;;;;;9.93;2.47;;;18.70;60.40;;;;;;5008418;28;20967;-76
2023/12/29 01:06:30;;;;;;;6.70;2.30;;;18.60;60.40;;;;;;5001476;28;20449;-76
2023/12/29 01:08:58;;;;;;;4.10;2.33;;;18.70;60.70;;;;;;5002191;28;20494;-78
2023/12/29 01:11:27;;;;;;;4.97;2.20;;;18.60;60.30;;;;;;5003911;28;20499;-77
2023/12/29 01:13:55;;;;;;;5.90;2.27;;;18.60;60.60;;;;;;4999142;28;20625;-78
2023/12/29 01:16:22;;;;;;;4.23;1.87;;;18.70;60.60;;;;;;5018471;28;20476;-78
2023/12/29 01:18:50;;;;;;;2.90;2.20;;;18.70;60.40;;;;;;5005267;28;20472;-77
2023/12/29 01:21:18;;;;;;;3.33;2.10;;;18.70;60.70;;;;;;5006006;28;20511;-76
2023/12/29 01:23:46;;;;;;;4.43;2.20;;;18.60;60.70;;;;;;5011981;28;20444;-76
2023/12/29 01:26:14;;;;;;;5.43;2.03;;;18.70;60.70;;;;;;5006006;28;20559;-76
2023/12/29 01:28:43;;;;;;;8.07;2.27;;;18.70;60.50;;;;;;5013597;28;20428;-76
2023/12/29 01:31:13;;;;;;;3.17;2.07;;;18.70;60.50;;;;;;5004035;28;20463;-78
2023/12/29 01:33:41;;;;;;;6.43;2.20;;;18.70;60.70;;;;;;5000481;28;20536;-76
2023/12/29 01:36:10;;;;;;;4.27;2.50;;;18.60;60.30;;;;;;5006020;28;20940;-77
2023/12/29 01:38:45;;;;;;;3.00;2.17;;;18.60;60.90;;;;;;5013969;28;20465;-76
2023/12/29 01:41:13;;;;;;;4.60;2.10;;;18.70;60.80;;;;;;5014266;28;20448;-77
2023/12/29 01:44:14;;;;;;;4.93;2.10;;;18.70;60.80;;;;;;5005130;28;20481;-76
2023/12/29 01:46:43;;;;;;;4.23;2.20;;;18.70;60.80;;;;;;5009731;28;20447;-77
2023/12/29 01:49:12;;;;;;;8.20;2.50;;;18.60;60.50;;;;;;5009690;28;20434;-77
2023/12/29 01:51:40;;;;;;;7.70;1.63;;;18.60;60.30;;;;;;5006957;28;20540;-76
2023/12/29 01:54:08;;;;;;;7.40;2.70;;;18.60;60.90;;;;;;5009005;28;20495;-76
2023/12/29 01:56:36;;;;;;;4.73;1.80;;;18.60;60.40;;;;;;5012278;28;20960;-77
2023/12/29 01:59:04;;;;;;;4.80;1.73;;;18.50;60.70;;;;;;4997110;28;20500;-77
2023/12/29 02:01:42;;;;;;;4.80;2.33;;;18.60;60.90;;;;;;5014212;28;20456;-76
2023/12/29 02:04:12;;;;;;;6.33;2.30;;;18.60;61.00;;;;;;5004441;28;20460;-76
2023/12/29 02:06:41;;;;;;;5.47;2.03;;;18.60;61.00;;;;;;5004285;28;20449;-77
2023/12/29 02:09:09;;;;;;;2.10;1.60;;;18.60;60.70;;;;;;5001286;28;20457;-75
2023/12/29 02:11:37;;;;;;;6.10;1.97;;;18.50;61.20;;;;;;5007906;28;20448;-76
2023/12/29 02:14:05;;;;;;;2.47;1.77;;;18.60;61.00;;;;;;4995310;28;20481;-76
2023/12/29 02:16:36;;;;;;;3.50;1.70;;;18.60;61.10;;;;;;4995424;28;20532;-77
2023/12/29 02:19:08;;;;;;;4.30;1.70;;;18.50;61.10;;;;;;5001729;28;20453;-78
2023/12/29 02:21:37;;;;;;;4.30;1.70;;;18.50;61.00;;;;;;5007075;28;20460;-77
2023/12/29 02:24:05;;;;;;;3.97;2.00;;;18.50;61.10;;;;;;5005403;28;20449;-76
2023/12/29 02:26:34;;;;;;;7.40;2.07;;;18.50;61.20;;;;;;5003086;28;20464;-77
2023/12/29 02:29:05;;;;;;;4.27;2.17;;;18.50;61.60;;;;;;4999118;28;20491;-77
2023/12/29 02:31:33;;;;;;;2.23;1.70;;;18.50;61.50;;;;;;4990742;28;20449;-76
2023/12/29 02:34:01;;;;;;;4.13;2.07;;;18.50;61.60;;;;;;5002052;28;20448;-77
2023/12/29 02:36:31;;;;;;;4.03;1.90;;;18.50;61.30;;;;;;5005826;28;20530;-76
2023/12/29 02:39:01;;;;;;;3.97;1.90;;;18.50;61.40;;;;;;4995449;28;20474;-76
2023/12/29 02:41:29;;;;;;;3.43;1.70;;;18.40;61.60;;;;;;4995766;28;20453;-76
2023/12/29 02:43:59;;;;;;;2.10;1.77;;;18.40;61.50;;;;;;4996222;28;20446;-77
2023/12/29 02:46:27;;;;;;;3.87;2.10;;;18.40;61.90;;;;;;4998247;28;20639;-76
2023/12/29 02:48:55;;;;;;;6.53;2.50;;;18.40;61.60;;;;;;5003178;28;20453;-78
2023/12/29 02:51:24;;;;;;;3.70;2.00;;;18.40;61.80;;;;;;5006819;28;20524;-78
2023/12/29 02:53:52;;;;;;;3.83;2.80;;;18.40;61.70;;;;;;5003671;28;20430;-78
2023/12/29 02:56:21;;;;;;;4.23;2.43;;;18.40;61.80;;;;;;5000085;28;20493;-77
2023/12/29 02:58:51;;;;;;;4.53;3.50;;;18.40;62.00;;;;;;5001972;28;20473;-77
2023/12/29 03:01:21;;;;;;;8.57;3.47;;;18.40;62.00;;;;;;4999225;28;20449;-76
2023/12/29 03:03:50;;;;;;;6.47;3.30;;;18.40;62.00;;;;;;4994821;28;20559;-77
2023/12/29 03:06:19;;;;;;;5.50;2.93;;;18.40;61.90;;;;;;4998965;28;20483;-77
2023/12/29 03:08:47;;;;;;;3.53;2.70;;;18.40;61.90;;;;;;4994808;28;20436;-77
2023/12/29 03:11:15;;;;;;;4.43;3.00;;;18.40;61.90;;;;;;5008522;28;20530;-77
2023/12/29 03:13:43;;;;;;;7.07;2.77;;;18.30;62.30;;;;;;5001385;28;20441;-79
2023/12/29 03:16:11;;;;;;;5.00;3.27;;;18.40;62.30;;;;;;5013161;28;20461;-78
2023/12/29 03:18:41;;;;;;;7.13;3.20;;;18.30;62.00;;;;;;5000691;28;20512;-77
2023/12/29 03:21:10;;;;;;;5.20;3.60;;;18.30;62.10;;;;;;5010077;28;20464;-76
2023/12/29 03:23:38;;;;;;;6.43;3.50;;;18.30;62.20;;;;;;5009008;28;20443;-77
2023/12/29 03:26:06;;;;;;;5.13;3.67;;;18.30;62.30;;;;;;4998351;28;20527;-77
2023/12/29 03:28:34;;;;;;;7.73;4.20;;;18.20;62.10;;;;;;5009339;28;20449;-77
2023/12/29 03:31:02;;;;;;;9.40;3.90;;;18.20;62.20;;;;;;5012678;28;20441;-77
2023/12/29 03:33:31;;;;;;;5.33;3.30;;;18.10;61.90;;;;;;5028848;28;20450;-77
2023/12/29 03:36:00;;;;;;;4.30;3.23;;;18.10;62.10;;;;;;5013233;28;20547;-77
2023/12/29 03:38:28;;;;;;;5.17;3.43;;;18.00;61.80;;;;;;5008367;28;20578;-76
2023/12/29 03:40:56;;;;;;;6.77;3.83;;;18.00;61.70;;;;;;5000917;28;20456;-76
2023/12/29 03:43:24;;;;;;;4.83;3.40;;;18.00;62.00;;;;;;5009704;28;20495;-76
2023/12/29 03:45:52;;;;;;;4.67;3.13;;;18.00;61.90;;;;;;5006492;28;20546;-77
2023/12/29 03:48:20;;;;;;;5.30;3.33;;;17.90;61.80;;;;;;5006178;28;20482;-77
2023/12/29 03:50:48;;;;;;;5.27;3.90;;;17.90;61.90;;;;;;5006075;28;20465;-76
2023/12/29 03:53:19;;;;;;;6.60;3.77;;;17.90;61.80;;;;;;5001827;28;20448;-77
2023/12/29 03:55:47;;;;;;;6.23;3.57;;;17.90;62.00;;;;;;5002824;28;20496;-76
2023/12/29 03:58:15;;;;;;;4.63;3.23;;;17.80;61.90;;;;;;4998908;28;20630;-76
2023/12/29 04:00:43;;;;;;;5.80;3.77;;;17.80;62.10;;;;;;5005192;28;20456;-77
2023/12/29 04:03:11;;;;;;;5.30;3.50;;;17.80;61.90;;;;;;5005861;28;20462;-76
2023/12/29 04:05:39;;;;;;;6.60;3.07;;;17.80;61.80;;;;;;5003914;28;20531;-77
2023/12/29 04:08:07;;;;;;;4.47;2.90;;;17.80;62.40;;;;;;4993643;28;20835;-77
2023/12/29 04:10:36;;;;;;;7.10;3.60;;;17.80;62.30;;;;;;4996281;28;20508;-75
2023/12/29 04:13:05;;;;;;;6.63;3.30;;;17.80;62.50;;;;;;5004120;28;20555;-76
2023/12/29 04:15:33;;;;;;;6.83;3.43;;;17.80;62.00;;;;;;4996197;28;20461;-77
2023/12/29 04:18:01;;;;;;;4.00;2.57;;;17.70;62.40;;;;;;5003057;28;20537;-76
2023/12/29 04:20:30;;;;;;;3.93;2.90;;;17.80;62.60;;;;;;5001386;28;20444;-77
2023/12/29 04:22:57;;;;;;;4.63;3.33;;;17.80;62.60;;;;;;5012235;28;20480;-76
2023/12/29 04:25:25;;;;;;;4.33;2.90;;;17.80;62.70;;;;;;5011486;28;20910;-76
2023/12/29 04:27:54;;;;;;;5.33;3.10;;;17.80;62.70;;;;;;5004705;28;20471;-75
2023/12/29 04:30:22;;;;;;;5.53;3.13;;;17.80;62.70;;;;;;5002275;28;20468;-76
2023/12/29 04:32:50;;;;;;;3.20;2.83;;;17.80;63.10;;;;;;5002619;28;20507;-77
2023/12/29 04:35:18;;;;;;;4.33;2.80;;;17.80;62.90;;;;;;5003907;28;20552;-76
2023/12/29 04:37:46;;;;;;;6.43;3.47;;;17.80;63.00;;;;;;5007762;28;20967;-76
2023/12/29 04:40:14;;;;;;;3.13;2.60;;;17.80;63.30;;;;;;4999003;28;20540;-76
2023/12/29 04:42:42;;;;;;;4.23;2.90;;;17.80;63.60;;;;;;5002386;28;20456;-76
2023/12/29 04:45:12;;;;;;;3.33;2.70;;;17.80;63.20;;;;;;5006160;28;20472;-76
2023/12/29 04:47:39;;;;;;;4.30;3.17;;;17.80;63.60;;;;;;5000453;28;20480;-76
2023/12/29 04:50:08;;;;;;;2.90;2.60;;;17.80;63.90;;;;;;5007936;28;20433;-75
2023/12/29 04:52:36;;;;;;;6.80;2.67;;;17.80;63.60;;;;;;5014010;28;20972;-77
2023/12/29 04:55:05;;;;;;;3.90;2.80;;;17.80;63.50;;;;;;5004576;28;20512;-76
2023/12/29 04:57:33;;;;;;;6.10;2.90;;;17.80;63.70;;;;;;5007224;28;20468;-75
2023/12/29 05:00:01;;;;;;;3.97;2.90;;;17.80;63.80;;;;;;5011587;28;20498;-76
2023/12/29 05:02:30;;;;;;;4.67;3.10;;;17.80;63.80;;;;;;4999587;28;20473;-76
2023/12/29 05:04:58;;;;;;;5.47;2.70;;;17.90;63.70;;;;;;5002052;28;20431;-76
2023/12/29 05:07:27;;;;;;;5.80;2.57;;;17.80;64.00;;;;;;5002509;28;20460;-75
2023/12/29 05:09:55;;;;;;;2.67;2.43;;;17.90;64.00;;;;;;5002199;28;20817;-76
2023/12/29 05:12:24;;;;;;;4.57;2.67;;;17.90;63.80;;;;;;5004826;28;20456;-76
2023/12/29 05:14:52;;;;;;;4.80;2.57;;;17.90;64.00;;;;;;5003469;28;20536;-76
2023/12/29 05:17:19;;;;;;;3.90;2.70;;;17.90;63.70;;;;;;5008002;28;20515;-76
2023/12/29 05:19:48;;;;;;;6.43;3.00;;;17.90;64.00;;;;;;5000805;28;20479;-75
2023/12/29 05:22:17;;;;;;;3.13;2.40;;;17.90;63.80;;;;;;5003185;28;20444;-76
2023/12/29 05:24:45;;;;;;;4.00;2.50;;;17.90;63.60;;;;;;4997977;28;20524;-75
2023/12/29 05:27:13;;;;;;;4.00;2.63;;;17.90;63.80;;;;;;5009590;28;20440;-76
2023/12/29 05:29:42;;;;;;;3.70;2.77;;;17.90;64.00;;;;;;5006325;28;20511;-76
2023/12/29 05:32:10;;;;;;;5.30;2.57;;;17.90;63.90;;;;;;5006181;28;20469;-75
2023/12/29 05:34:38;;;;;;;4.47;2.63;;;17.90;63.80;;;;;;5007694;28;20457;-76
2023/12/29 05:37:07;;;;;;;4.43;2.90;;;17.90;64.10;;;;;;4995093;28;20457;-75
2023/12/29 05:39:35;;;;;;;3.53;2.60;;;17.90;63.90;;;;;;5000428;28;20474;-76
2023/12/29 05:42:04;;;;;;;3.77;2.47;;;17.90;63.90;;;;;;5007137;28;20436;-75
2023/12/29 05:44:31;;;;;;;5.63;2.57;;;17.90;63.80;;;;;;5000315;28;20465;-76
2023/12/29 05:46:59;;;;;;;8.67;3.10;;;17.90;63.90;;;;;;5004283;28;20536;-76
2023/12/29 05:49:27;;;;;;;6.33;2.83;;;17.90;64.00;;;;;;5006634;28;20523;-76
2023/12/29 05:51:55;;;;;;;3.80;2.70;;;17.90;64.00;;;;;;5001909;28;20438;-76
2023/12/29 05:54:24;;;;;;;4.67;2.80;;;17.90;64.10;;;;;;5000262;28;20450;-76
2023/12/29 05:56:52;;;;;;;7.63;2.70;;;17.90;63.70;;;;;;4993426;28;20441;-77
2023/12/29 05:59:20;;;;;;;3.40;2.30;;;17.90;64.80;;;;;;4993913;28;20555;-76
2023/12/29 06:01:48;;;;;;;2.93;2.27;;;17.90;64.10;;;;;;4998468;28;20468;-76
2023/12/29 06:04:17;;;;;;;3.20;2.30;;;17.90;63.70;;;;;;5008721;28;20503;-77
2023/12/29 06:06:45;;;;;;;5.70;2.40;;;17.90;64.10;;;;;;5003820;28;20468;-76
2023/12/29 06:09:13;;;;;;;3.93;2.70;;;17.90;64.10;;;;;;5002740;28;20436;-77
2023/12/29 06:11:42;;;;;;;6.97;2.60;;;17.90;64.30;;;;;;5007859;28;20535;-76
2023/12/29 06:14:10;;;;;;;4.57;2.27;;;17.90;64.00;;;;;;4999960;28;20900;-77
2023/12/29 06:16:38;;;;;;;8.10;2.47;;;17.90;64.10;;;;;;4997307;28;20446;-77
2023/12/29 06:19:06;;;;;;;4.80;2.57;;;17.90;63.90;;;;;;5005158;28;20928;-76
2023/12/29 06:21:34;;;;;;;8.43;2.23;;;17.90;63.70;;;;;;5000834;28;20448;-77
2023/12/29 06:24:02;;;;;;;6.53;2.17;;;17.90;63.80;;;;;;5001607;28;20548;-78
2023/12/29 06:26:30;;;;;;;5.03;2.37;;;17.90;64.10;;;;;;5009902;28;20566;-77
2023/12/29 06:28:59;;;;;;;2.73;2.13;;;17.90;64.00;;;;;;4997103;28;20449;-76
2023/12/29 06:31:28;;;;;;;6.60;2.93;;;17.90;63.80;;;;;;5001284;28;20451;-76
2023/12/29 06:33:56;;;;;;;6.23;2.53;;;17.90;63.70;;;;;;5003642;28;20448;-77
2023/12/29 06:36:24;;;;;;;4.43;2.50;;;17.90;63.80;;;;;;5001419;28;20471;-79
2023/12/29 06:38:52;;;;;;;7.63;2.53;;;17.90;63.80;;;;;;4997881;28;20445;-77
2023/12/29 06:41:20;;;;;;;9.00;2.80;;;17.90;64.10;;;;;;5009842;28;20527;-79
2023/12/29 06:43:48;;;;;;;4.40;2.20;;;18.00;64.10;;;;;;4994390;28;20471;-77
2023/12/29 06:46:17;;;;;;;3.17;2.10;;;17.90;63.70;;;;;;5006319;28;20502;-78
2023/12/29 06:48:45;;;;;;;9.50;2.73;;;18.00;63.90;;;;;;4998546;28;20437;-77
2023/12/29 06:51:17;;;;;;;9.80;2.47;;;17.90;63.70;;;;;;4995254;28;20508;-77
2023/12/29 06:53:45;;;;;;;3.63;2.33;;;18.00;64.00;;;;;;4994315;28;20428;-79
2023/12/29 06:56:14;;;;;;;5.47;2.20;;;17.90;63.80;;;;;;4998121;28;20462;-78
2023/12/29 06:58:42;;;;;;;5.00;2.77;;;17.90;63.80;;;;;;4995118;28;20457;-76
2023/12/29 07:01:11;;;;;;;9.60;2.67;;;17.90;63.70;;;;;;4995883;28;20485;-77
2023/12/29 07:03:40;;;;;;;8.90;2.70;;;17.90;64.10;;;;;;5007381;28;20454;-78
2023/12/29 07:06:09;;;;;;;7.60;2.40;;;17.90;63.50;;;;;;5004308;28;20508;-77
2023/12/29 07:08:37;;;;;;;9.77;2.93;;;17.90;64.00;;;;;;4999024;28;20459;-77
2023/12/29 07:11:05;;;;;;;4.37;2.13;;;17.90;63.80;;;;;;5004809;28;20479;-77
2023/12/29 07:13:33;;;;;;;9.30;2.47;;;17.90;63.80;;;;;;5004212;28;20527;-77
2023/12/29 07:16:00;;;;;;;4.43;2.50;;;17.90;63.80;;;;;;5005953;28;20549;-77
2023/12/29 07:18:28;;;;;;;7.40;2.20;;;17.90;63.50;;;;;;5005691;28;20507;-77
2023/12/29 07:20:58;;;;;;;4.20;2.30;;;17.90;63.90;;;;;;5003461;28;20475;-79
2023/12/29 07:23:26;;;;;;;8.33;2.87;;;17.90;63.90;;;;;;5003817;28;20477;-77
2023/12/29 07:25:54;;;;;;;4.00;2.43;;;17.90;63.90;;;;;;5001459;28;20560;-76
2023/12/29 07:28:22;;;;;;;6.50;2.10;;;17.90;63.60;;;;;;5007402;28;20480;-76
2023/12/29 07:30:51;;;;;;;7.17;2.60;;;17.90;63.90;;;;;;5012091;28;20440;-77
2023/12/29 07:33:19;;;;;;;7.10;2.80;;;17.90;63.80;;;;;;5006774;28;20456;-74
2023/12/29 07:35:47;;;;;;;5.87;2.80;;;17.90;64.00;;;;;;5003984;28;20527;-78
2023/12/29 07:38:17;;;;;;;3.33;2.17;;;17.90;63.50;;;;;;5000642;28;20481;-78
2023/12/29 07:40:45;;;;;;;5.50;2.63;;;17.80;63.90;;;;;;5011672;28;20472;-79
2023/12/29 07:43:13;;;;;;;6.33;2.50;;;17.80;63.90;;;;;;5005103;28;20543;-78
2023/12/29 07:45:43;;;;;;;6.50;2.23;;;17.80;64.40;;;;;;5003023;28;20533;-79
2023/12/29 07:48:11;;;;;;;11.57;2.67;;;17.80;63.90;;;;;;5008564;28;20448;-78
2023/12/29 07:50:40;;;;;;;7.43;2.73;;;17.90;64.10;;;;;;4999891;28;20444;-77
2023/12/29 07:53:08;;;;;;;7.33;2.60;;;17.80;63.80;;;;;;5003995;28;20448;-78
2023/12/29 07:55:40;;;;;;;8.77;2.40;;;17.80;63.60;;;;;;5009449;28;20503;-79
2023/12/29 07:58:10;;;;;;;7.30;2.60;;;17.80;64.20;;;;;;5006629;28;20470;-79
2023/12/29 08:00:38;;;;;;;5.60;2.20;;;17.90;64.00;;;;;;5012709;28;20499;-78
2023/12/29 08:03:08;;;;;;;9.00;2.73;;;17.90;63.60;;;;;;5005342;28;20445;-78
2023/12/29 08:05:36;;;;;;;9.10;2.83;;;17.80;63.80;;;;;;5006665;28;20469;-77
2023/12/29 08:08:04;;;;;;;6.40;2.43;;;17.80;64.10;;;;;;5004390;28;20449;-79
2023/12/29 08:10:32;;;;;;;7.20;2.40;;;17.90;63.60;;;;;;4997382;28;20540;-76
2023/12/29 08:13:01;;;;;;;4.93;2.80;;;17.80;64.00;;;;;;4999355;28;20445;-78
2023/12/29 08:15:29;;;;;;;8.03;2.67;;;17.80;64.00;;;;;;5002356;28;20464;-79
2023/12/29 08:17:57;;;;;;;5.40;2.40;;;17.90;64.10;;;;;;5000002;28;20437;-78
2023/12/29 08:20:25;;;;;;;7.20;2.63;;;17.90;64.10;;;;;;5006012;28;20650;-78
2023/12/29 08:22:53;;;;;;;4.87;2.20;;;17.90;64.20;;;;;;5008828;28;20536;-77
2023/12/29 08:25:21;;;;;;;8.53;2.50;;;17.90;63.80;;;;;;5008515;28;20475;-77
2023/12/29 08:27:49;;;;;;;7.97;2.30;;;17.90;63.90;;;;;;4997652;28;20932;-77
2023/12/29 08:30:18;;;;;;;8.23;2.63;;;17.90;64.10;;;;;;4997755;28;20425;-78
2023/12/29 08:32:46;;;;;;;10.97;3.00;;;17.90;64.10;;;;;;5002799;28;20490;-78
2023/12/29 08:35:13;;;;;;;12.97;3.00;;;17.90;63.80;;;;;;5005982;28;20488;-79
2023/12/29 08:37:42;;;;;;;7.47;2.73;;;17.90;64.00;;;;;;5005525;28;20467;-76
2023/12/29 08:40:10;;;;;;;5.63;2.20;;;17.90;63.70;;;;;;5005248;28;20444;-77
2023/12/29 08:42:38;;;;;;;8.30;2.10;;;17.90;63.80;;;;;;5002924;28;20452;-77
2023/12/29 08:45:07;;;;;;;8.00;2.57;;;17.90;63.80;;;;;;4994570;28;20468;-79
2023/12/29 08:47:37;;;;;;;8.80;2.53;;;17.90;63.70;;;;;;5002089;28;20428;-79
2023/12/29 08:50:06;;;;;;;6.37;2.10;;;17.90;63.60;;;;;;4998374;28;20436;-79
2023/12/29 08:52:34;;;;;;;6.30;2.43;;;17.90;63.90;;;;;;4994628;28;20436;-78
2023/12/29 08:55:02;;;;;;;11.47;2.20;;;17.90;63.70;;;;;;5006330;28;20551;-79
2023/12/29 08:57:33;;;;;;;5.77;2.90;;;18.00;63.60;;;;;;5000913;28;20475;-78
2023/12/29 09:00:01;;;;;;;8.60;2.20;;;17.90;63.60;;;;;;4999547;28;20456;-77
2023/12/29 09:02:28;;;;;;;6.70;2.40;;;17.90;63.80;;;;;;5001385;28;20475;-77
2023/12/29 09:04:58;;;;;;;5.10;1.80;;;17.90;63.70;;;;;;5005125;28;20463;-76
2023/12/29 09:07:28;;;;;;;8.43;2.50;;;17.90;63.70;;;;;;5008496;28;20483;-77
2023/12/29 09:09:55;;;;;;;10.83;2.60;;;17.90;63.70;;;;;;5008592;28;20438;-78
2023/12/29 09:12:23;;;;;;;5.70;1.80;;;17.90;63.80;;;;;;5005893;28;20451;-78
2023/12/29 09:14:52;;;;;;;8.10;2.13;;;18.00;64.30;;;;;;4998074;28;20539;-78
2023/12/29 09:17:20;;;;;;;4.73;1.87;;;18.00;63.70;;;;;;5000228;28;20975;-79
2023/12/29 09:19:48;;;;;;;5.80;2.50;;;18.00;63.90;;;;;;5008889;28;20444;-79
2023/12/29 09:22:28;;;;;;;6.00;2.03;;;18.00;63.90;;;;;;5009715;28;20476;-78
2023/12/29 09:24:56;;;;;;;7.73;2.30;;;18.10;63.70;;;;;;5001430;28;20496;-77
2023/12/29 09:27:24;;;;;;;5.83;2.10;;;18.10;64.00;;;;;;5005221;28;20512;-78
2023/12/29 09:29:52;;;;;;;7.40;2.60;;;18.10;63.60;;;;;;5002214;28;20519;-79
2023/12/29 09:32:20;;;;;;;5.37;1.97;;;18.20;63.70;;;;;;4995727;28;20540;-78
2023/12/29 09:34:48;;;;;;;5.33;2.00;;;18.20;63.90;;;;;;5000563;28;20476;-78
2023/12/29 09:37:16;;;;;;;9.60;2.50;;;18.20;63.90;;;;;;4998148;28;20532;-78
2023/12/29 09:39:46;;;;;;;7.17;2.27;;;18.30;63.90;;;;;;5008100;28;20444;-78
2023/12/29 09:42:20;;;;;;;6.40;1.80;;;18.30;63.80;;;;;;5003201;28;20476;-79
2023/12/29 09:44:48;;;;;;;3.97;1.90;;;18.40;64.00;;;;;;4997033;28;20542;-78
2023/12/29 09:47:16;;;;;;;6.00;2.30;;;18.40;63.60;;;;;;5000411;28;20441;-78
2023/12/29 09:49:45;;;;;;;3.97;2.20;;;18.40;63.50;;;;;;5000710;28;20455;-76
2023/12/29 09:52:13;;;;;;;6.03;1.80;;;18.40;63.70;;;;;;5000133;28;20445;-77
2023/12/29 09:54:42;;;;;;;3.07;2.20;;;18.40;63.50;;;;;;5007864;28;20503;-79
2023/12/29 09:57:11;;;;;;;5.53;2.00;;;18.30;63.50;;;;;;5006835;28;20457;-77
2023/12/29 09:59:39;;;;;;;8.07;2.50;;;18.30;63.70;;;;;;5002593;28;20463;-78
2023/12/29 10:02:07;;;;;;;4.23;2.13;;;18.30;63.70;;;;;;4997205;28;20508;-78
2023/12/29 10:04:36;;;;;;;9.57;2.10;;;18.30;63.70;;;;;;5003309;28;20496;-78
2023/12/29 10:07:04;;;;;;;10.07;2.43;;;18.30;63.40;;;;;;4991921;28;20439;-76
2023/12/29 10:09:32;;;;;;;6.40;2.10;;;18.30;63.70;;;;;;4997613;28;20455;-78
2023/12/29 10:12:01;;;;;;;9.50;2.50;;;18.30;63.90;;;;;;4993593;28;20447;-77
2023/12/29 10:14:33;;;;;;;7.40;2.23;;;18.30;63.90;;;;;;4997103;28;20504;-78
2023/12/29 10:17:05;;;;;;;4.00;2.00;;;18.30;64.00;;;;;;4991083;28;20484;-79
2023/12/29 10:19:37;;;;;;;6.00;2.60;;;18.40;64.00;;;;;;4994547;28;20536;-77
2023/12/29 10:22:19;;;;;;;7.00;2.10;;;18.40;63.70;;;;;;5003100;28;20514;-78
2023/12/29 10:24:47;;;;;;;7.93;2.60;;;18.40;63.50;;;;;;4986612;28;20545;-79
2023/12/29 10:27:15;;;;;;;3.77;2.10;;;18.40;63.60;;;;;;4996932;28;20485;-78
2023/12/29 10:29:45;;;;;;;4.87;1.70;;;18.40;63.70;;;;;;5004650;28;21055;-79
2023/12/29 10:32:13;;;;;;;6.40;2.13;;;18.50;63.70;;;;;;5000395;28;20480;-79
2023/12/29 10:34:41;;;;;;;6.27;2.23;;;18.50;63.60;;;;;;4997338;28;20511;-79
2023/12/29 10:37:14;;;;;;;5.30;2.30;;;18.50;63.40;;;;;;5005970;28;20454;-78
2023/12/29 10:39:55;;;;;;;7.57;2.37;;;18.40;63.80;;;;;;4999116;28;20427;-79
2023/12/29 10:42:23;;;;;;;10.80;2.57;;;18.50;63.90;;;;;;5008650;28;20454;-80
2023/12/29 10:45:05;;;;;;;5.50;2.23;;;18.40;63.50;;;;;;5001343;28;20543;-77
2023/12/29 10:47:34;;;;;;;6.47;1.90;;;18.50;63.90;;;;;;4995748;28;20487;-76
2023/12/29 10:50:04;;;;;;;6.47;2.57;;;18.50;63.50;;;;;;4999679;28;20449;-79
2023/12/29 10:52:33;;;;;;;6.30;2.17;;;18.50;63.60;;;;;;4992684;28;20450;-78
2023/12/29 10:55:11;;;;;;;4.03;1.80;;;18.50;63.50;;;;;;5003707;28;20551;-78
2023/12/29 10:57:39;;;;;;;4.23;1.90;;;18.50;63.40;;;;;;4994501;28;20460;-80
2023/12/29 11:00:12;;;;;;;4.20;1.90;;;18.50;63.40;;;;;;5002950;28;20534;-79
2023/12/29 11:02:41;;;;;;;4.10;1.77;;;18.50;63.30;;;;;;5002540;28;20475;-78
2023/12/29 11:05:10;;;;;;;8.57;2.73;;;18.50;63.40;;;;;;5006176;28;20477;-79
2023/12/29 11:07:39;;;;;;;6.57;2.07;;;18.40;63.60;;;;;;4996301;28;20496;-80
2023/12/29 11:10:08;;;;;;;7.50;1.90;;;18.40;64.10;;;;;;5006917;28;20458;-77
2023/12/29 11:12:37;;;;;;;2.50;1.63;;;18.40;63.60;;;;;;5009265;28;20456;-79
2023/12/29 11:15:06;;;;;;;3.47;1.70;;;18.40;63.90;;;;;;5003570;28;20488;-75
2023/12/29 11:17:36;;;;;;;4.17;1.73;;;18.50;63.70;;;;;;5019112;28;20466;-79
2023/12/29 11:20:05;;;;;;;7.57;1.97;;;18.50;63.80;;;;;;5004217;28;20437;-77
2023/12/29 11:22:33;;;;;;;6.93;2.27;;;18.50;63.90;;;;;;5011672;28;20476;-77
2023/12/29 11:25:07;;;;;;;3.50;2.00;;;18.50;63.90;;;;;;5009476;28;21030;-80
2023/12/29 11:27:36;;;;;;;4.00;1.90;;;18.50;63.70;;;;;;5011827;28;20452;-78
2023/12/29 11:30:27;;;;;;;2.40;1.80;;;18.50;63.90;;;;;;4996953;28;20522;-78
2023/12/29 11:32:59;;;;;;;5.27;2.00;;;18.60;63.80;;;;;;5013918;28;20451;-78
2023/12/29 11:35:29;;;;;;;3.80;1.80;;;18.60;63.90;;;;;;5002738;28;20470;-77
2023/12/29 11:38:31;;;;;;;3.07;1.87;;;18.60;63.60;;;;;;5008505;28;20502;-78
2023/12/29 11:41:04;;;;;;;2.73;2.10;;;18.70;64.30;;;;;;5008899;28;20448;-77
2023/12/29 11:43:33;;;;;;;6.20;2.13;;;18.80;64.10;;;;;;5014196;28;20496;-79
2023/12/29 11:46:01;;;;;;;3.60;1.67;;;18.90;64.30;;;;;;4993553;28;20484;-78
2023/12/29 11:48:56;;;;;;;9.80;2.03;;;19.10;64.60;;;;;;5006651;28;20462;-79
2023/12/29 11:51:29;;;;;;;3.47;1.80;;;19.30;64.60;;;;;;5009731;28;20456;-78
2023/12/29 11:53:57;;;;;;;7.50;2.10;;;19.40;64.60;;;;;;5013583;28;20504;-78
2023/12/29 11:56:25;;;;;;;5.90;1.77;;;19.70;64.50;;;;;;5003243;28;20500;-77
2023/12/29 11:58:53;;;;;;;2.00;1.80;;;19.90;64.10;;;;;;5006180;28;20444;-78
2023/12/29 12:01:36;;;;;;;2.07;1.83;;;20.10;63.90;;;;;;5002216;28;20453;-78
2023/12/29 12:04:16;;;;;;;3.90;1.70;;;20.40;63.80;;;;;;5015186;28;20476;-77
2023/12/29 12:06:45;;;;;;;2.60;1.80;;;20.60;63.40;;;;;;5017107;28;20503;-78
2023/12/29 12:09:25;;;;;;;7.77;2.40;;;20.90;63.10;;;;;;5017217;28;20423;-79
2023/12/29 12:11:54;;;;;;;4.90;2.03;;;21.20;62.80;;;;;;5018194;28;20439;-78
2023/12/29 12:14:47;;;;;;;4.50;2.17;;;21.40;62.20;;;;;;5004821;28;20892;-79
2023/12/29 12:17:28;;;;;;;2.90;1.80;;;21.60;62.10;;;;;;5013073;28;20442;-76
2023/12/29 12:20:01;;;;;;;3.50;1.70;;;21.70;61.70;;;;;;5010795;28;20537;-78
2023/12/29 12:22:31;;;;;;;4.40;1.70;;;21.90;61.50;;;;;;5002532;28;20476;-77
2023/12/29 12:25:03;;;;;;;3.33;1.70;;;22.00;61.20;;;;;;5012390;28;20542;-78
2023/12/29 12:27:32;;;;;;;2.00;1.60;;;22.20;61.10;;;;;;5014591;28;20452;-79
2023/12/29 12:30:00;;;;;;;5.03;2.00;;;22.20;60.80;;;;;;5013391;28;20514;-77
2023/12/29 12:32:28;;;;;;;3.80;1.97;;;22.20;60.50;;;;;;5011862;28;20427;-78
2023/12/29 12:34:58;;;;;;;5.20;1.80;;;22.20;60.70;;;;;;5017708;28;20468;-79
2023/12/29 12:37:27;;;;;;;4.50;1.93;;;22.20;60.60;;;;;;5007128;28;20444;-79
2023/12/29 12:39:55;;;;;;;4.97;2.00;;;22.20;60.60;;;;;;5011312;28;20466;-77
2023/12/29 12:42:24;;;;;;;5.50;1.90;;;22.20;60.40;;;;;;5000656;28;20423;-78
2023/12/29 12:44:56;;;;;;;2.90;1.33;;;22.10;60.40;;;;;;5012060;28;20504;-78
2023/12/29 12:47:29;;;;;;;2.17;1.57;;;22.00;60.40;;;;;;5003946;28;20456;-79
2023/12/29 12:49:58;;;;;;;6.20;1.60;;;22.00;60.70;;;;;;5007241;28;20462;-79
2023/12/29 12:52:27;;;;;;;7.33;1.93;;;22.00;61.10;;;;;;5005770;28;20453;-78
2023/12/29 12:55:00;;;;;;;2.40;1.70;;;22.20;61.20;;;;;;5006032;28;20469;-78
2023/12/29 12:57:29;;;;;;;6.67;1.90;;;22.30;60.70;;;;;;5009984;28;20445;-78
2023/12/29 12:59:57;;;;;;;5.17;1.90;;;22.40;60.80;;;;;;5010560;28;20456;-78
2023/12/29 13:02:26;;;;;;;6.37;1.60;;;22.40;60.70;;;;;;5003100;28;20488;-79
2023/12/29 13:04:54;;;;;;;5.60;1.80;;;22.50;60.70;;;;;;5001328;28;20468;-79
2023/12/29 13:07:24;;;;;;;3.00;1.93;;;22.60;60.40;;;;;;5014371;28;20499;-78
2023/12/29 13:09:53;;;;;;;5.83;2.03;;;22.60;60.50;;;;;;5004003;28;20449;-76
2023/12/29 13:12:21;;;;;;;6.00;1.70;;;22.70;60.40;;;;;;5015406;28;20434;-79
2023/12/29 13:14:51;;;;;;;3.70;1.70;;;22.70;60.10;;;;;;5006204;28;20431;-77
2023/12/29 13:17:22;;;;;;;2.93;1.60;;;22.70;60.10;;;;;;5011602;28;20470;-78